Dunn Center, North Dakota
Current Conditions -  °F | °C
As of 12:56 PM on Monday 24 Nov 2014 (Local Time) from KDIK Reporting Station
Clear Clear  
Wind Chill:   Ceiling: Unl
Heat Index: 23°   Visibility: 10mi
Dew Point: 15°   Wind: 17mph
Humidity: 72%   Direction: 290°WNW
Pressure: 29.93"   Gusts: NA
Location:  47.35°N, 102.62°W
Report Text: KDIK 241956Z AUTO 29015KT 10SM CLR M05/M09 A2993 RMK AO2 SLP176 T10501094
Loading
Personal Weather Stations






























Interactive Weather Map New forecast layout! Learn more

10-Day Weather Forecast

Advertisements
Track Severe Weather on mobile